createdAt,value
2017-10-26T00:01:46.472Z,12.50
2017-10-26T00:04:14.730Z,12.60
2017-10-26T00:06:43.019Z,12.70
2017-10-26T00:09:11.266Z,12.60
2017-10-26T00:11:45.422Z,12.70
2017-10-26T00:14:13.706Z,12.60
2017-10-26T00:16:43.934Z,12.70
2017-10-26T00:19:12.223Z,12.70
2017-10-26T00:21:50.735Z,12.80
2017-10-26T00:24:19.021Z,12.80
2017-10-26T00:26:48.240Z,12.90
2017-10-26T00:29:16.502Z,12.90
2017-10-26T00:32:01.663Z,12.90
2017-10-26T00:34:29.939Z,12.90
2017-10-26T00:36:58.192Z,12.90
2017-10-26T00:39:26.476Z,12.90
2017-10-26T00:41:55.737Z,12.90
2017-10-26T00:44:24.019Z,13.00
2017-10-26T00:47:09.382Z,13.00
2017-10-26T00:49:37.674Z,13.00
2017-10-26T00:52:10.972Z,13.00
2017-10-26T00:54:40.558Z,13.00
2017-10-26T01:00:05.483Z,13.00
2017-10-26T01:02:33.770Z,13.00
2017-10-26T01:05:02.026Z,13.00
2017-10-26T01:07:30.306Z,13.00
2017-10-26T01:09:58.563Z,13.10
2017-10-26T01:12:43.951Z,13.10
2017-10-26T01:15:12.220Z,13.10
2017-10-26T01:20:39.879Z,13.10
2017-10-26T01:23:08.550Z,13.10
2017-10-26T01:25:47.006Z,13.10
2017-10-26T01:28:15.307Z,13.10
2017-10-26T01:30:44.511Z,13.10
2017-10-26T01:33:12.779Z,13.00
2017-10-26T01:35:41.072Z,13.00
2017-10-26T01:38:10.288Z,13.00
2017-10-26T01:40:38.628Z,13.10
2017-10-26T01:43:06.929Z,13.10
2017-10-26T01:45:43.422Z,13.10
2017-10-26T01:48:11.733Z,13.10
2017-10-26T01:50:40.981Z,13.00
2017-10-26T01:53:10.465Z,13.00
2017-10-26T01:55:39.544Z,13.00
2017-10-26T01:58:07.821Z,13.00
2017-10-26T02:00:40.244Z,13.00
2017-10-26T02:03:09.515Z,12.90
2017-10-26T02:05:47.976Z,13.00
2017-10-26T02:08:16.279Z,12.90
2017-10-26T02:10:55.001Z,13.00
2017-10-26T02:13:24.341Z,13.00
2017-10-26T02:15:52.610Z,13.00
2017-10-26T02:18:20.920Z,13.00
2017-10-26T02:20:49.181Z,13.00
2017-10-26T02:23:17.456Z,13.00
2017-10-26T02:25:45.769Z,13.00
2017-10-26T02:28:20.872Z,13.00
2017-10-26T02:31:17.682Z,13.00
2017-10-26T02:33:45.978Z,13.00
2017-10-26T02:36:14.254Z,13.00
2017-10-26T02:38:45.925Z,13.10
2017-10-26T02:41:14.206Z,13.10
2017-10-26T02:43:54.032Z,13.10
2017-10-26T02:46:23.153Z,13.10
2017-10-26T02:48:52.322Z,13.10
2017-10-26T02:51:20.622Z,13.10
2017-10-26T02:53:48.901Z,13.10
2017-10-26T02:56:17.201Z,13.20
2017-10-26T02:58:46.482Z,13.20
2017-10-26T03:01:14.748Z,13.10
2017-10-26T03:03:56.986Z,13.10
2017-10-26T03:06:25.252Z,13.10
2017-10-26T03:08:56.819Z,13.20
2017-10-26T03:11:25.099Z,13.10
2017-10-26T03:13:53.771Z,13.10
2017-10-26T03:16:22.840Z,13.10
2017-10-26T03:18:54.842Z,13.10
2017-10-26T03:21:24.249Z,13.20
2017-10-26T03:23:53.516Z,13.20
2017-10-26T03:26:22.693Z,13.10
2017-10-26T03:29:00.756Z,13.10
2017-10-26T03:31:29.019Z,13.10
2017-10-26T03:34:01.290Z,13.00
2017-10-26T03:36:29.559Z,13.10
2017-10-26T03:39:08.597Z,13.00
2017-10-26T03:41:36.852Z,13.00
2017-10-26T03:44:10.601Z,13.00
2017-10-26T03:46:39.788Z,13.00
2017-10-26T03:49:20.840Z,13.00
2017-10-26T03:51:49.111Z,13.00
2017-10-26T03:54:27.436Z,13.00
2017-10-26T03:56:55.704Z,13.00
2017-10-26T03:59:27.530Z,13.00
2017-10-26T04:01:55.824Z,13.10
2017-10-26T04:04:24.104Z,13.20
2017-10-26T04:06:52.405Z,13.10
2017-10-26T04:09:20.668Z,13.10
2017-10-26T04:11:48.978Z,13.10
2017-10-26T04:14:34.267Z,13.10
2017-10-26T04:17:02.576Z,13.10
2017-10-26T04:19:37.636Z,13.10
2017-10-26T04:22:05.932Z,13.10
2017-10-26T04:24:35.197Z,13.20
2017-10-26T04:27:03.492Z,13.30
2017-10-26T04:29:35.180Z,13.20
2017-10-26T04:32:03.469Z,13.30
2017-10-26T04:34:48.772Z,13.30
2017-10-26T04:37:17.035Z,13.20
2017-10-26T04:40:05.446Z,13.20
2017-10-26T04:42:33.711Z,13.20
2017-10-26T04:45:02.016Z,13.30
2017-10-26T04:47:30.289Z,13.30
2017-10-26T04:50:06.737Z,13.30
2017-10-26T04:52:35.007Z,13.20
2017-10-26T04:55:03.287Z,13.20
2017-10-26T04:57:31.575Z,13.30
2017-10-26T05:00:13.572Z,13.30
2017-10-26T05:02:41.842Z,13.30
2017-10-26T05:05:27.789Z,13.30
2017-10-26T05:07:56.084Z,13.30
2017-10-26T05:10:34.024Z,13.20
2017-10-26T05:13:02.324Z,13.30
2017-10-26T05:15:34.336Z,13.40
2017-10-26T05:18:02.646Z,13.30
2017-10-26T05:20:31.863Z,13.30
2017-10-26T05:23:00.123Z,13.50
2017-10-26T05:25:38.637Z,13.40
2017-10-26T05:28:06.141Z,13.40
2017-10-26T05:30:36.376Z,13.50
2017-10-26T05:33:04.660Z,13.50
2017-10-26T05:35:49.719Z,13.50
2017-10-26T05:38:17.988Z,13.50
2017-10-26T05:40:48.220Z,13.60
2017-10-26T05:43:16.522Z,13.60
2017-10-26T05:45:47.988Z,13.60
2017-10-26T05:48:16.271Z,13.50
2017-10-26T05:50:44.536Z,13.50
2017-10-26T05:53:12.849Z,13.60
2017-10-26T05:55:51.109Z,13.50
2017-10-26T05:58:19.417Z,13.50
2017-10-26T06:00:48.673Z,13.60
2017-10-26T06:03:16.946Z,13.60
2017-10-26T06:06:02.222Z,13.60
2017-10-26T06:08:30.512Z,13.60
2017-10-26T06:11:23.186Z,13.60
2017-10-26T06:13:52.650Z,13.60
2017-10-26T06:16:20.920Z,13.60
2017-10-26T06:18:49.182Z,13.70
2017-10-26T06:21:34.653Z,13.70
2017-10-26T06:24:02.923Z,13.70
2017-10-26T06:26:50.298Z,13.60
2017-10-26T06:29:18.559Z,13.60
2017-10-26T06:31:57.095Z,13.60
2017-10-26T06:34:25.361Z,13.60
2017-10-26T06:36:57.528Z,13.60
2017-10-26T06:39:25.796Z,13.70
2017-10-26T06:42:02.197Z,13.70
2017-10-26T06:44:30.459Z,13.70
2017-10-26T06:50:02.606Z,13.70
2017-10-26T06:52:30.897Z,13.70
2017-10-26T06:54:59.173Z,13.80
2017-10-26T06:57:27.459Z,13.80
2017-10-26T06:59:56.677Z,13.80
2017-10-26T07:02:24.973Z,13.80
2017-10-26T07:10:54.261Z,13.80
2017-10-26T07:13:22.556Z,13.90
2017-10-26T07:15:50.813Z,13.90
2017-10-26T07:18:27.233Z,13.90
2017-10-26T07:20:55.514Z,13.90
2017-10-26T07:23:24.766Z,13.90
2017-10-26T07:25:53.488Z,13.90
2017-10-26T07:28:22.733Z,13.90
2017-10-26T07:30:51.066Z,13.90
2017-10-26T07:33:24.053Z,14.00
2017-10-26T07:35:53.175Z,14.00
2017-10-26T07:38:31.846Z,14.00
2017-10-26T07:41:00.119Z,14.00
2017-10-26T07:43:28.389Z,14.10
2017-10-26T07:46:16.807Z,14.20
2017-10-26T07:48:45.079Z,14.10
2017-10-26T07:51:13.371Z,14.20
2017-10-26T07:53:41.649Z,14.30
2017-10-26T07:56:11.161Z,14.40
2017-10-26T07:58:40.419Z,14.40
2017-10-26T08:01:09.486Z,14.40
2017-10-26T08:03:37.766Z,14.40
2017-10-26T08:06:06.038Z,14.30
2017-10-26T08:08:34.342Z,14.30
2017-10-26T08:11:02.635Z,14.30
2017-10-26T08:13:30.918Z,14.30
2017-10-26T08:15:59.207Z,14.30
2017-10-26T08:18:27.472Z,14.40
2017-10-26T08:20:55.839Z,14.40
2017-10-26T08:23:27.544Z,14.50
2017-10-26T08:25:55.841Z,14.50
2017-10-26T08:28:24.114Z,14.50
2017-10-26T08:30:52.405Z,14.50
2017-10-26T08:33:20.659Z,14.40
2017-10-26T08:35:48.982Z,14.40
2017-10-26T08:38:17.258Z,14.50
2017-10-26T08:40:45.529Z,14.60
2017-10-26T08:43:13.861Z,14.60
2017-10-26T08:45:42.152Z,14.70
2017-10-26T08:48:10.457Z,14.70
2017-10-26T08:50:39.596Z,14.80
2017-10-26T08:53:07.903Z,14.90
2017-10-26T08:55:36.164Z,15.00
2017-10-26T08:58:04.472Z,15.00
2017-10-26T09:00:32.736Z,15.20
2017-10-26T09:03:01.028Z,15.20
2017-10-26T09:05:28.555Z,15.20
2017-10-26T09:07:56.836Z,15.20
2017-10-26T09:10:25.103Z,15.20
2017-10-26T09:12:54.548Z,15.40
2017-10-26T09:15:24.102Z,15.40
2017-10-26T09:17:51.896Z,15.40
2017-10-26T09:20:20.163Z,15.50
2017-10-26T09:22:48.428Z,15.50
2017-10-26T09:25:16.740Z,15.50
2017-10-26T09:27:45.008Z,15.50
2017-10-26T09:30:13.276Z,15.50
2017-10-26T09:33:04.673Z,15.40
2017-10-26T09:35:32.931Z,15.60
2017-10-26T09:38:01.220Z,15.60
2017-10-26T09:40:29.480Z,15.70
2017-10-26T09:42:57.779Z,15.70
2017-10-26T09:45:26.048Z,15.70
2017-10-26T09:47:54.325Z,15.70
2017-10-26T09:50:22.624Z,15.60
2017-10-26T09:52:50.890Z,15.60
2017-10-26T09:55:19.205Z,15.70
2017-10-26T09:57:47.479Z,15.70
2017-10-26T10:00:15.748Z,15.80
2017-10-26T10:02:44.074Z,15.80
2017-10-26T10:05:11.567Z,15.80
2017-10-26T10:07:40.286Z,15.80
2017-10-26T10:10:09.705Z,15.90
2017-10-26T10:12:38.051Z,15.90
2017-10-26T10:15:07.206Z,16.10
2017-10-26T10:17:35.503Z,16.20
2017-10-26T10:20:03.766Z,16.20
2017-10-26T10:22:32.083Z,16.40
2017-10-26T10:25:00.351Z,16.30
2017-10-26T10:27:28.643Z,16.40
2017-10-26T10:30:01.757Z,16.40
2017-10-26T10:32:30.017Z,16.40
2017-10-26T10:35:05.591Z,16.30
2017-10-26T10:37:33.857Z,16.30
2017-10-26T10:40:09.541Z,16.30
2017-10-26T10:42:37.798Z,16.40
2017-10-26T10:45:06.087Z,16.40
2017-10-26T10:47:39.188Z,16.30
2017-10-26T10:50:07.923Z,16.40
2017-10-26T10:52:40.369Z,16.40
2017-10-26T10:55:09.669Z,16.50
2017-10-26T10:57:54.900Z,16.40
2017-10-26T11:03:05.417Z,16.40
2017-10-26T11:05:33.687Z,16.40
2017-10-26T11:08:02.018Z,16.60
2017-10-26T11:10:30.297Z,16.50
2017-10-26T11:12:58.619Z,16.60
2017-10-26T11:15:26.923Z,16.50
2017-10-26T11:18:06.636Z,16.50
2017-10-26T11:20:34.935Z,16.60
2017-10-26T11:23:03.220Z,16.60
2017-10-26T11:25:31.500Z,16.80
2017-10-26T11:27:59.788Z,16.80
2017-10-26T11:30:45.326Z,16.90
2017-10-26T11:33:13.597Z,16.70
2017-10-26T11:35:44.983Z,16.60
2017-10-26T11:38:13.251Z,16.60
2017-10-26T11:40:51.564Z,16.70
2017-10-26T11:43:19.866Z,16.80
2017-10-26T11:45:56.556Z,16.90
2017-10-26T11:48:24.859Z,17.00
2017-10-26T11:50:56.886Z,16.90
2017-10-26T11:53:25.188Z,16.90
2017-10-26T11:56:00.544Z,17.00
2017-10-26T11:58:28.800Z,17.00
2017-10-26T12:00:59.026Z,17.10
2017-10-26T12:03:27.300Z,17.10
2017-10-26T12:09:12.396Z,17.20
2017-10-26T12:11:40.701Z,17.50
2017-10-26T12:17:23.928Z,17.80
2017-10-26T12:19:53.103Z,17.50
2017-10-26T12:22:22.188Z,17.50
2017-10-26T12:24:53.824Z,17.40
2017-10-26T12:27:22.768Z,17.50
2017-10-26T12:30:08.914Z,17.50
2017-10-26T12:32:37.186Z,17.30
2017-10-26T12:35:25.680Z,17.30
2017-10-26T12:37:53.944Z,17.30
2017-10-26T12:40:23.092Z,17.30
2017-10-26T12:42:52.053Z,17.20
2017-10-26T12:45:20.326Z,17.20
2017-10-26T12:47:48.596Z,17.50
2017-10-26T12:50:16.891Z,17.60
2017-10-26T12:52:45.155Z,17.50
2017-10-26T12:55:19.528Z,17.40
2017-10-26T12:57:47.801Z,17.50
2017-10-26T13:00:18.122Z,17.70
2017-10-26T13:02:46.403Z,17.90
2017-10-26T13:05:18.093Z,18.00
2017-10-26T13:07:46.369Z,18.00
2017-10-26T13:10:36.123Z,17.90
2017-10-26T13:13:03.616Z,17.90
2017-10-26T13:15:35.064Z,17.90
2017-10-26T13:18:03.369Z,17.80
2017-10-26T13:20:50.518Z,17.80
2017-10-26T13:23:18.820Z,17.70
2017-10-26T13:26:00.650Z,17.60
2017-10-26T13:28:28.935Z,17.50
2017-10-26T13:31:11.817Z,17.40
2017-10-26T13:33:41.211Z,17.50
2017-10-26T13:36:15.539Z,17.50
2017-10-26T13:38:44.114Z,17.50
2017-10-26T13:41:29.334Z,17.50
2017-10-26T13:43:57.646Z,17.40
2017-10-26T13:46:33.804Z,17.40
2017-10-26T13:49:02.105Z,17.40
2017-10-26T13:51:32.393Z,17.50
2017-10-26T13:54:00.676Z,17.40
2017-10-26T13:56:29.962Z,17.40
2017-10-26T13:58:57.459Z,17.40
2017-10-26T14:01:29.004Z,17.40
2017-10-26T14:03:57.269Z,17.40
2017-10-26T14:06:24.767Z,17.40
2017-10-26T14:08:53.764Z,17.60
2017-10-26T14:11:36.571Z,17.50
2017-10-26T14:14:04.883Z,17.50
2017-10-26T14:16:35.120Z,17.40
2017-10-26T14:19:03.427Z,17.40
2017-10-26T14:27:35.404Z,17.30
2017-10-26T14:30:03.728Z,17.20
2017-10-26T14:32:53.832Z,17.10
2017-10-26T14:35:22.922Z,17.20
2017-10-26T14:37:52.878Z,17.20
2017-10-26T14:40:21.198Z,17.20
2017-10-26T14:42:54.430Z,17.20
2017-10-26T14:45:23.993Z,17.20
2017-10-26T14:48:00.248Z,17.00
2017-10-26T14:50:28.525Z,17.10
2017-10-26T14:52:56.826Z,17.00
2017-10-26T14:55:25.091Z,16.90
2017-10-26T14:57:53.385Z,16.90
2017-10-26T15:00:21.683Z,16.90
2017-10-26T15:02:56.905Z,17.00
2017-10-26T15:05:25.233Z,16.90
2017-10-26T15:07:54.622Z,16.90
2017-10-26T15:10:24.207Z,16.90
2017-10-26T15:13:04.985Z,16.80
2017-10-26T15:15:33.275Z,16.80
2017-10-26T15:18:01.537Z,16.80
2017-10-26T15:20:29.832Z,16.80
2017-10-26T15:22:58.088Z,16.80
2017-10-26T15:25:26.400Z,16.80
2017-10-26T15:27:54.670Z,16.80
2017-10-26T15:30:24.319Z,16.70
2017-10-26T15:32:53.851Z,16.80
2017-10-26T15:35:23.413Z,16.80
2017-10-26T15:37:51.806Z,16.80
2017-10-26T15:40:20.116Z,16.70
2017-10-26T15:42:48.381Z,16.60
2017-10-26T15:45:16.639Z,16.60
2017-10-26T15:47:44.924Z,16.50
2017-10-26T15:50:13.190Z,16.50
2017-10-26T15:52:41.496Z,16.60
2017-10-26T15:55:11.007Z,16.50
2017-10-26T15:57:39.272Z,16.40
2017-10-26T16:00:07.345Z,16.40
2017-10-26T16:02:35.653Z,16.40
2017-10-26T16:05:03.963Z,16.30
2017-10-26T16:07:32.228Z,16.30
2017-10-26T16:10:00.482Z,16.30
2017-10-26T16:12:28.782Z,16.20
2017-10-26T16:14:57.080Z,16.10
2017-10-26T16:17:24.571Z,16.10
2017-10-26T16:19:53.484Z,16.10
2017-10-26T16:22:21.784Z,16.10
2017-10-26T16:24:50.062Z,16.10
2017-10-26T16:27:18.363Z,16.10
2017-10-26T16:29:46.637Z,16.00
2017-10-26T16:32:14.914Z,16.00
2017-10-26T16:34:43.224Z,15.90
2017-10-26T16:37:11.488Z,15.80
2017-10-26T16:39:40.773Z,15.80
2017-10-26T16:42:10.759Z,15.80
2017-10-26T16:44:39.696Z,15.80
2017-10-26T16:47:07.969Z,15.80
2017-10-26T16:49:36.279Z,15.70
2017-10-26T16:52:04.552Z,15.80
2017-10-26T16:54:32.872Z,15.80
2017-10-26T16:57:01.188Z,15.70
2017-10-26T16:59:29.466Z,15.70
2017-10-26T17:01:57.743Z,15.70
2017-10-26T17:04:26.065Z,15.70
2017-10-26T17:06:56.068Z,15.70
2017-10-26T17:09:25.811Z,15.70
2017-10-26T17:11:55.080Z,15.70
2017-10-26T17:14:23.347Z,15.70
2017-10-26T17:16:51.654Z,15.60
2017-10-26T17:19:19.970Z,15.60
2017-10-26T17:21:48.266Z,15.80
2017-10-26T17:24:16.527Z,15.80
2017-10-26T17:26:44.834Z,15.70
2017-10-26T17:29:13.100Z,15.50
2017-10-26T17:31:41.372Z,15.50
2017-10-26T17:34:10.560Z,15.40
2017-10-26T17:36:39.480Z,15.30
2017-10-26T17:39:10.707Z,15.30
2017-10-26T17:41:39.751Z,15.30
2017-10-26T17:44:08.011Z,15.30
2017-10-26T17:46:36.299Z,15.40
2017-10-26T17:49:04.614Z,15.40
2017-10-26T17:51:32.898Z,15.40
2017-10-26T17:54:00.432Z,15.40
2017-10-26T17:56:28.697Z,15.50
2017-10-26T17:58:56.239Z,15.50
2017-10-26T18:01:24.803Z,15.50
2017-10-26T18:03:53.642Z,15.50
2017-10-26T18:06:21.941Z,15.50
2017-10-26T18:08:50.253Z,15.50
2017-10-26T18:11:18.527Z,15.50
2017-10-26T18:13:46.828Z,15.60
2017-10-26T18:16:15.135Z,15.50
2017-10-26T18:18:42.632Z,15.50
2017-10-26T18:21:11.325Z,15.60
2017-10-26T18:23:40.448Z,15.60
2017-10-26T18:26:09.852Z,15.50
2017-10-26T18:28:38.131Z,15.50
2017-10-26T18:31:06.453Z,15.50
2017-10-26T18:33:34.734Z,15.50
2017-10-26T18:36:03.031Z,15.40
2017-10-26T18:38:31.287Z,15.50
2017-10-26T18:40:59.576Z,15.40
2017-10-26T18:43:27.843Z,15.30
2017-10-26T18:45:56.156Z,15.30
2017-10-26T18:48:24.412Z,15.30
2017-10-26T18:50:53.664Z,15.20
2017-10-26T18:53:21.988Z,15.20
2017-10-26T18:55:50.293Z,15.20
2017-10-26T18:58:18.618Z,15.20
2017-10-26T19:00:46.903Z,15.20
2017-10-26T19:03:14.423Z,15.20
2017-10-26T19:05:42.730Z,15.20
2017-10-26T19:08:11.450Z,15.20
2017-10-26T19:10:40.400Z,15.30
2017-10-26T19:13:09.712Z,15.20
2017-10-26T19:15:38.022Z,15.20
2017-10-26T19:18:06.296Z,15.30
2017-10-26T19:20:34.604Z,15.20
2017-10-26T19:23:02.887Z,15.20
2017-10-26T19:25:31.168Z,15.20
2017-10-26T19:27:59.472Z,15.20
2017-10-26T19:30:27.749Z,15.30
2017-10-26T19:32:56.040Z,15.30
2017-10-26T19:35:27.264Z,15.20
2017-10-26T19:37:55.572Z,15.20
2017-10-26T19:40:26.829Z,15.30
2017-10-26T19:42:55.140Z,15.20
2017-10-26T19:45:23.583Z,15.20
2017-10-26T19:47:51.876Z,15.10
2017-10-26T19:50:20.142Z,15.10
2017-10-26T19:52:48.466Z,15.00
2017-10-26T19:55:16.740Z,14.90
2017-10-26T19:57:45.036Z,15.00
2017-10-26T20:00:13.300Z,15.00
2017-10-26T20:02:41.596Z,14.90
2017-10-26T20:05:11.193Z,14.90
2017-10-26T20:07:39.466Z,14.90
2017-10-26T20:10:07.065Z,14.80
2017-10-26T20:12:35.350Z,14.70
2017-10-26T20:15:03.616Z,14.70
2017-10-26T20:17:31.139Z,14.70
2017-10-26T20:19:59.405Z,14.60
2017-10-26T20:22:27.723Z,14.60
2017-10-26T20:24:55.980Z,14.50
2017-10-26T20:27:23.856Z,14.50
2017-10-26T20:29:53.447Z,14.40
2017-10-26T20:32:21.704Z,14.50
2017-10-26T20:34:49.996Z,14.50
2017-10-26T20:37:18.297Z,14.40
2017-10-26T20:39:46.560Z,14.30
2017-10-26T20:42:14.917Z,14.40
2017-10-26T20:44:43.190Z,14.40
2017-10-26T20:47:11.473Z,14.40
2017-10-26T20:49:46.628Z,14.40
2017-10-26T20:52:20.650Z,14.40
2017-10-26T20:54:54.640Z,14.40
2017-10-26T20:57:28.508Z,14.40
2017-10-26T21:00:02.561Z,14.40
2017-10-26T21:02:36.524Z,14.30
2017-10-26T21:05:10.571Z,14.30
2017-10-26T21:07:44.496Z,14.40
2017-10-26T21:10:18.443Z,14.30
2017-10-26T21:12:53.280Z,14.20
2017-10-26T21:15:21.591Z,14.30
2017-10-26T21:17:49.865Z,14.30
2017-10-26T21:20:18.256Z,14.30
2017-10-26T21:22:46.528Z,14.30
2017-10-26T21:25:14.789Z,14.30
2017-10-26T21:27:43.099Z,14.20
2017-10-26T21:30:11.373Z,14.30
2017-10-26T21:32:40.325Z,14.20
2017-10-26T21:35:09.037Z,14.10
2017-10-26T21:37:37.305Z,14.20
2017-10-26T21:40:05.616Z,14.20
2017-10-26T21:42:33.916Z,14.20
2017-10-26T21:45:02.193Z,14.20
2017-10-26T21:47:30.484Z,14.10
2017-10-26T21:49:58.783Z,14.00
2017-10-26T21:52:27.052Z,14.00
2017-10-26T21:54:55.311Z,14.00
2017-10-26T21:57:24.998Z,14.00
2017-10-26T21:59:53.822Z,13.90
2017-10-26T22:02:22.079Z,14.00
2017-10-26T22:04:50.532Z,13.90
2017-10-26T22:07:18.793Z,13.90
2017-10-26T22:09:47.071Z,14.00
2017-10-26T22:12:15.447Z,14.00
2017-10-26T22:14:43.712Z,14.00
2017-10-26T22:17:11.977Z,14.00
2017-10-26T22:19:41.587Z,14.00
2017-10-26T22:22:10.399Z,13.90
2017-10-26T22:24:39.284Z,13.90
2017-10-26T22:27:07.620Z,13.80
2017-10-26T22:29:35.888Z,13.80
2017-10-26T22:32:04.149Z,13.80
2017-10-26T22:34:32.454Z,13.80
2017-10-26T22:37:00.726Z,13.80
2017-10-26T22:39:29.039Z,13.80
2017-10-26T22:41:57.309Z,13.80
2017-10-26T22:44:25.586Z,13.80
2017-10-26T22:46:54.724Z,13.80
2017-10-26T22:49:24.626Z,13.80
2017-10-26T22:51:53.807Z,13.80
2017-10-26T22:54:23.580Z,13.90
2017-10-26T22:56:51.963Z,13.90
2017-10-26T22:59:20.234Z,13.80
2017-10-26T23:01:48.501Z,13.80
2017-10-26T23:04:16.804Z,13.80
2017-10-26T23:06:45.072Z,13.80
2017-10-26T23:09:13.336Z,13.80
2017-10-26T23:11:41.635Z,13.70
2017-10-26T23:14:11.118Z,13.70
2017-10-26T23:16:39.412Z,13.80
2017-10-26T23:19:07.684Z,13.70
2017-10-26T23:21:35.977Z,13.70
2017-10-26T23:24:04.244Z,13.60
2017-10-26T23:26:32.546Z,13.70
2017-10-26T23:29:00.817Z,13.60
2017-10-26T23:31:29.111Z,13.60
2017-10-26T23:33:57.452Z,13.80
2017-10-26T23:36:25.708Z,13.70
2017-10-26T23:38:55.079Z,13.70
2017-10-26T23:41:23.382Z,13.80
2017-10-26T23:43:51.644Z,13.70
2017-10-26T23:46:19.937Z,13.70
2017-10-26T23:48:48.283Z,13.60
2017-10-26T23:51:16.565Z,13.70
2017-10-26T23:53:44.845Z,13.60
2017-10-26T23:56:13.135Z,13.50
2017-10-26T23:58:41.742Z,13.70
